Time;durP1;ratioP1;P1;durP2;ratioP2;P2;SDS_P1;SDS_P2;PMS_P1;PMS_P2;Temp;Humidity;BMP_temperature;BMP_pressure;BME280_temperature;BME280_humidity;BME280_pressure;Samples;Min_cycle;Max_cycle;Signal;HPM_P1;HPM_P2
2022/11/17 00:00:17;;;;;;;2.77;2.13;;;5.80;99.90;;;;;;5019061;28;20184;-82
2022/11/17 00:02:44;;;;;;;3.30;2.50;;;5.80;99.90;;;;;;4995248;28;20190;-83
2022/11/17 00:05:09;;;;;;;3.57;2.33;;;5.80;99.90;;;;;;5017389;28;20201;-83
2022/11/17 00:07:35;;;;;;;3.57;2.20;;;5.80;99.90;;;;;;5019650;28;20187;-82
2022/11/17 00:10:01;;;;;;;2.50;2.03;;;5.80;99.90;;;;;;4998093;28;20238;-83
2022/11/17 00:15:13;;;;;;;2.10;1.70;;;5.80;99.90;;;;;;5002715;28;20241;-82
2022/11/17 00:17:39;;;;;;;3.07;2.00;;;5.80;99.90;;;;;;5020709;28;20576;-84
2022/11/17 00:22:50;;;;;;;3.00;2.10;;;5.80;99.90;;;;;;4995012;28;20626;-83
2022/11/17 00:25:16;;;;;;;3.17;2.17;;;5.80;99.90;;;;;;5010053;28;20187;-83
2022/11/17 00:27:41;;;;;;;2.63;2.13;;;5.80;99.90;;;;;;5026981;28;20183;-84
2022/11/17 00:30:08;;;;;;;2.30;2.10;;;5.80;99.90;;;;;;4993774;28;20534;-84
2022/11/17 00:35:17;;;;;;;2.53;2.00;;;5.80;99.90;;;;;;4994868;28;20187;-82
2022/11/17 00:40:28;;;;;;;2.33;1.87;;;5.80;99.90;;;;;;5009370;28;20625;-82
2022/11/17 00:42:54;;;;;;;2.17;1.97;;;5.80;99.90;;;;;;4996177;28;20191;-82
2022/11/17 00:45:19;;;;;;;2.10;1.83;;;5.80;99.90;;;;;;5001429;28;20191;-83
2022/11/17 00:47:45;;;;;;;2.63;2.20;;;5.80;99.90;;;;;;4997008;28;20528;-82
2022/11/17 00:50:11;;;;;;;2.43;2.10;;;5.80;99.90;;;;;;4998021;28;20198;-83
2022/11/17 00:52:36;;;;;;;2.40;2.10;;;5.80;99.90;;;;;;4997073;28;20219;-83
2022/11/17 00:55:02;;;;;;;2.87;2.47;;;5.80;99.90;;;;;;5009222;28;20191;-82
2022/11/17 00:57:28;;;;;;;3.57;2.60;;;5.80;99.90;;;;;;5018177;28;20191;-84
2022/11/17 00:59:53;;;;;;;3.97;2.07;;;5.80;99.90;;;;;;5012290;28;20194;-83
2022/11/17 01:02:20;;;;;;;3.20;2.53;;;5.80;99.90;;;;;;4997096;28;20627;-83
2022/11/17 01:04:46;;;;;;;3.73;2.30;;;5.80;99.90;;;;;;5017726;28;20276;-83
2022/11/17 01:07:12;;;;;;;3.27;2.67;;;5.80;99.90;;;;;;5000881;28;20188;-83
2022/11/17 01:09:37;;;;;;;3.57;2.73;;;5.80;99.90;;;;;;5020987;28;20300;-83
2022/11/17 01:12:03;;;;;;;3.03;2.33;;;5.80;99.90;;;;;;5009276;28;20319;-85
2022/11/17 01:14:31;;;;;;;2.93;2.40;;;5.80;99.90;;;;;;5011571;28;20187;-83
2022/11/17 01:16:57;;;;;;;3.20;2.30;;;5.80;99.90;;;;;;4994753;28;20246;-84
2022/11/17 01:19:23;;;;;;;3.30;2.40;;;5.90;99.90;;;;;;5001597;28;20192;-82
2022/11/17 01:21:49;;;;;;;3.40;2.67;;;5.90;99.90;;;;;;5018987;28;20545;-84
2022/11/17 01:24:16;;;;;;;3.47;2.60;;;5.90;99.90;;;;;;5015314;28;20274;-84
2022/11/17 01:26:43;;;;;;;4.27;2.80;;;5.90;99.90;;;;;;5002418;28;20622;-82
2022/11/17 01:31:49;;;;;;;3.97;3.03;;;5.80;99.90;;;;;;5159177;22;20722;-90
2022/11/17 01:34:15;;;;;;;4.00;3.30;;;5.80;99.90;;;;;;4993357;28;20231;-90
2022/11/17 01:39:28;;;;;;;4.50;3.70;;;5.80;99.90;;;;;;5011597;28;20170;-90
2022/11/17 01:41:55;;;;;;;4.70;3.70;;;5.80;99.90;;;;;;5013277;28;20530;-89
2022/11/17 01:44:50;;;;;;;4.50;3.43;;;5.80;99.90;;;;;;5012873;28;20167;-90
2022/11/17 01:47:32;;;;;;;4.33;3.77;;;5.80;99.90;;;;;;5012918;28;20202;-90
2022/11/17 01:50:23;;;;;;;7.17;3.93;;;5.80;99.90;;;;;;5006878;28;20222;-90
2022/11/17 01:52:52;;;;;;;5.33;4.20;;;5.80;99.90;;;;;;4997769;28;20290;-90
2022/11/17 01:55:20;;;;;;;4.47;3.90;;;5.80;99.90;;;;;;4993596;28;20203;-91
2022/11/17 01:57:58;;;;;;;5.33;4.17;;;5.80;99.90;;;;;;4993566;28;20199;-89
2022/11/17 02:00:24;;;;;;;6.30;3.93;;;5.80;99.90;;;;;;4993978;28;20179;-92
2022/11/17 02:02:51;;;;;;;5.37;4.10;;;5.80;99.90;;;;;;4994360;28;20184;-90
2022/11/17 02:05:53;;;;;;;5.53;4.07;;;5.80;99.90;;;;;;4995266;28;20250;-89
2022/11/17 02:08:21;;;;;;;5.77;4.10;;;5.80;99.90;;;;;;4994601;28;20195;-89
2022/11/17 02:10:50;;;;;;;5.97;4.53;;;5.80;99.90;;;;;;4994531;28;20275;-89
2022/11/17 02:13:17;;;;;;;5.13;4.23;;;5.80;99.90;;;;;;5005696;28;20179;-89
2022/11/17 02:15:44;;;;;;;5.40;4.30;;;5.80;99.90;;;;;;5012677;28;20266;-90
2022/11/17 02:18:10;;;;;;;5.20;4.37;;;5.80;99.90;;;;;;4996493;28;20205;-89
2022/11/17 02:20:49;;;;;;;5.50;4.50;;;5.80;99.90;;;;;;5014524;28;20309;-89
2022/11/17 02:23:21;;;;;;;5.77;4.70;;;5.80;99.90;;;;;;5016780;28;20202;-90
2022/11/17 02:26:04;;;;;;;6.00;4.77;;;5.70;99.90;;;;;;5002535;28;20210;-90
2022/11/17 02:28:35;;;;;;;7.57;5.03;;;5.60;99.90;;;;;;4997542;28;20200;-89
2022/11/17 02:31:08;;;;;;;6.47;4.97;;;5.70;99.90;;;;;;5005459;28;20235;-89
2022/11/17 02:33:58;;;;;;;6.73;4.63;;;5.70;99.90;;;;;;4988485;28;20180;-88
2022/11/17 02:36:54;;;;;;;9.33;4.73;;;5.60;99.90;;;;;;4997874;28;20660;-91
2022/11/17 02:39:42;;;;;;;7.03;5.00;;;5.70;99.90;;;;;;5007045;28;20202;-89
2022/11/17 02:45:21;;;;;;;6.73;5.10;;;5.60;99.90;;;;;;5002188;28;20190;-88
2022/11/17 02:47:53;;;;;;;6.80;5.30;;;5.60;99.90;;;;;;4996474;28;20196;-90
2022/11/17 02:50:21;;;;;;;7.13;4.80;;;5.60;99.90;;;;;;4996556;28;20171;-89
2022/11/17 02:52:47;;;;;;;7.00;5.20;;;5.60;99.90;;;;;;4996812;28;20200;-90
2022/11/17 02:55:13;;;;;;;8.17;5.00;;;5.60;99.90;;;;;;5010348;28;20181;-90
2022/11/17 02:57:40;;;;;;;6.87;4.83;;;5.60;99.90;;;;;;5016477;28;20202;-89
2022/11/17 03:00:15;;;;;;;9.60;5.63;;;5.60;99.90;;;;;;5016153;28;20159;-89
2022/11/17 03:03:05;;;;;;;8.37;4.57;;;5.60;99.90;;;;;;5016458;28;20183;-89
2022/11/17 03:05:48;;;;;;;7.10;5.33;;;5.60;99.90;;;;;;5016086;28;20666;-89
2022/11/17 03:08:57;;;;;;;6.93;5.10;;;5.50;99.90;;;;;;5015851;28;20266;-89
2022/11/17 03:11:42;;;;;;;6.97;5.10;;;5.50;99.90;;;;;;4941012;29;20303;-89
2022/11/17 03:14:14;;;;;;;8.23;5.43;;;5.50;99.90;;;;;;5012317;28;20191;-89
2022/11/17 03:17:06;;;;;;;7.33;5.27;;;5.60;99.90;;;;;;5015934;28;20167;-91
2022/11/17 03:19:41;;;;;;;6.87;4.67;;;5.60;99.90;;;;;;5015068;28;20174;-89
2022/11/17 03:22:13;;;;;;;8.87;5.00;;;5.50;99.90;;;;;;4996157;28;20243;-89
2022/11/17 03:24:54;;;;;;;6.90;5.50;;;5.60;99.90;;;;;;4996680;28;20176;-89
2022/11/17 03:27:31;;;;;;;7.97;5.17;;;5.50;99.90;;;;;;4995755;28;20226;-90
2022/11/17 03:30:01;;;;;;;7.17;4.93;;;5.50;99.90;;;;;;4995955;28;20168;-90
2022/11/17 03:32:33;;;;;;;7.27;5.40;;;5.50;99.90;;;;;;4995173;28;20671;-89
2022/11/17 03:35:03;;;;;;;7.33;5.37;;;5.50;99.90;;;;;;4995942;28;20230;-90
2022/11/17 03:37:35;;;;;;;8.03;5.47;;;5.40;99.90;;;;;;4996140;28;20204;-89
2022/11/17 03:40:06;;;;;;;10.47;5.30;;;5.40;99.90;;;;;;4995230;28;20211;-89
2022/11/17 03:42:36;;;;;;;6.83;5.10;;;5.40;99.90;;;;;;4995290;28;20180;-89
2022/11/17 03:45:18;;;;;;;7.17;5.10;;;5.40;99.90;;;;;;4995229;28;20199;-88
2022/11/17 03:47:45;;;;;;;6.73;5.33;;;5.40;99.90;;;;;;4995017;28;20246;-89
2022/11/17 03:50:23;;;;;;;7.20;5.20;;;5.40;99.90;;;;;;4995282;28;20164;-89
2022/11/17 03:52:50;;;;;;;7.40;5.27;;;5.40;99.90;;;;;;4995332;28;20753;-88
2022/11/17 03:55:17;;;;;;;8.33;5.73;;;5.40;99.90;;;;;;4995325;28;20203;-90
2022/11/17 03:57:54;;;;;;;9.90;5.67;;;5.40;99.90;;;;;;4994961;28;20235;-90
2022/11/17 04:00:20;;;;;;;8.47;5.90;;;5.30;99.90;;;;;;4995013;28;20194;-89
2022/11/17 04:02:52;;;;;;;9.10;5.80;;;5.30;99.90;;;;;;4995382;28;20192;-91
2022/11/17 04:05:18;;;;;;;7.97;5.80;;;5.30;99.90;;;;;;4994746;28;20203;-89
2022/11/17 04:07:47;;;;;;;10.03;5.40;;;5.30;99.90;;;;;;4994825;28;20206;-88
2022/11/17 04:10:22;;;;;;;7.93;5.70;;;5.30;99.90;;;;;;4994754;28;20172;-90
2022/11/17 04:18:18;;;;;;;11.13;6.50;;;5.30;99.90;;;;;;4995953;28;20218;-90
2022/11/17 04:20:47;;;;;;;8.57;6.00;;;5.30;99.90;;;;;;4994802;28;20168;-89
2022/11/17 04:23:14;;;;;;;9.60;6.37;;;5.30;99.90;;;;;;4994712;28;20538;-87
2022/11/17 04:28:38;;;;;;;10.10;6.60;;;5.20;99.90;;;;;;4995933;28;20198;-90
2022/11/17 04:31:27;;;;;;;10.47;7.50;;;5.30;99.90;;;;;;4994244;28;20322;-89
2022/11/17 04:33:58;;;;;;;13.80;7.57;;;5.20;99.90;;;;;;4994840;28;20208;-88
2022/11/17 04:36:29;;;;;;;15.03;7.77;;;5.20;99.90;;;;;;4994685;28;20175;-89
2022/11/17 04:38:57;;;;;;;10.70;7.57;;;5.20;99.90;;;;;;4994481;28;20195;-89
2022/11/17 04:44:12;;;;;;;11.03;7.43;;;5.20;99.90;;;;;;4996477;28;20205;-89
2022/11/17 04:46:43;;;;;;;10.97;7.47;;;5.20;99.90;;;;;;4994325;28;20241;-89
2022/11/17 04:49:09;;;;;;;10.43;7.67;;;5.20;99.90;;;;;;4994717;28;20215;-91
2022/11/17 04:51:35;;;;;;;12.60;8.60;;;5.20;99.90;;;;;;4994604;28;20636;-89
2022/11/17 04:54:04;;;;;;;12.43;8.47;;;5.10;99.90;;;;;;4995145;28;20192;-90
2022/11/17 04:56:31;;;;;;;12.10;8.77;;;5.10;99.90;;;;;;4998346;28;20172;-88
2022/11/17 04:58:57;;;;;;;14.73;8.90;;;5.10;99.90;;;;;;4999646;28;20186;-89
2022/11/17 05:01:24;;;;;;;11.97;8.37;;;5.10;99.90;;;;;;4999164;28;20197;-88
2022/11/17 05:03:59;;;;;;;11.30;7.70;;;5.10;99.90;;;;;;4993827;28;20163;-89
2022/11/17 05:06:28;;;;;;;11.87;8.17;;;5.10;99.90;;;;;;4993867;28;20183;-89
2022/11/17 05:08:55;;;;;;;11.50;8.17;;;5.10;99.90;;;;;;4995541;28;20685;-88
2022/11/17 05:14:15;;;;;;;11.20;8.17;;;5.10;99.90;;;;;;4994841;28;20643;-89
2022/11/17 05:19:28;;;;;;;13.13;9.10;;;5.10;99.90;;;;;;4994871;28;20167;-89
2022/11/17 05:21:57;;;;;;;12.50;8.60;;;5.10;99.90;;;;;;4993572;28;20172;-88
2022/11/17 05:24:23;;;;;;;12.03;8.40;;;5.10;99.90;;;;;;4993670;28;20546;-89
2022/11/17 05:26:49;;;;;;;14.90;9.50;;;5.10;99.90;;;;;;4994009;28;20206;-89
2022/11/17 05:29:17;;;;;;;13.00;8.93;;;5.10;99.90;;;;;;4993945;28;20183;-91
2022/11/17 05:31:45;;;;;;;15.27;10.97;;;5.00;99.90;;;;;;4993618;28;20236;-88
2022/11/17 05:34:13;;;;;;;16.27;10.33;;;4.90;99.90;;;;;;4993878;28;20167;-89
2022/11/17 05:36:40;;;;;;;16.77;10.93;;;4.90;99.90;;;;;;4993718;28;20211;-90
2022/11/17 05:39:07;;;;;;;16.03;11.30;;;4.80;99.90;;;;;;4993563;28;20222;-89
2022/11/17 05:41:33;;;;;;;16.30;11.27;;;4.80;99.90;;;;;;4992959;28;20663;-91
2022/11/17 05:43:59;;;;;;;15.77;10.90;;;4.80;99.90;;;;;;4993502;28;20176;-88
2022/11/17 05:46:26;;;;;;;19.47;11.10;;;4.90;99.90;;;;;;4993182;28;20182;-88
2022/11/17 05:48:52;;;;;;;14.97;10.53;;;4.80;99.90;;;;;;4993463;28;20199;-90
2022/11/17 05:51:20;;;;;;;16.10;10.47;;;4.90;99.90;;;;;;4993522;28;20203;-88
2022/11/17 05:53:47;;;;;;;16.50;10.30;;;4.80;99.90;;;;;;4993622;28;20160;-90
2022/11/17 05:56:48;;;;;;;20.93;11.37;;;4.80;99.90;;;;;;4997275;28;20172;-90
2022/11/17 05:59:26;;;;;;;15.97;11.57;;;4.80;99.90;;;;;;4997408;28;20168;-88
2022/11/17 06:02:07;;;;;;;17.07;10.80;;;4.80;99.90;;;;;;4997077;28;20167;-88
2022/11/17 06:04:34;;;;;;;19.00;12.20;;;4.70;99.90;;;;;;4999564;28;20172;-87
2022/11/17 06:07:00;;;;;;;16.83;11.50;;;4.70;99.90;;;;;;4997954;28;20663;-89
2022/11/17 06:09:33;;;;;;;19.30;12.23;;;4.80;99.90;;;;;;4999784;28;20173;-89
2022/11/17 06:11:59;;;;;;;18.13;12.47;;;4.70;99.90;;;;;;4999153;28;20250;-89
2022/11/17 06:14:26;;;;;;;17.57;12.10;;;4.70;99.90;;;;;;4997498;28;20176;-88
2022/11/17 06:16:55;;;;;;;19.00;12.00;;;4.70;99.90;;;;;;4991692;28;20197;-90
2022/11/17 06:19:28;;;;;;;19.43;12.90;;;4.60;99.90;;;;;;4999041;28;20172;-90
2022/11/17 06:21:54;;;;;;;17.20;11.97;;;4.60;99.90;;;;;;5005924;28;20203;-90
2022/11/17 06:24:23;;;;;;;18.80;12.77;;;4.60;99.90;;;;;;4995971;28;20172;-91
2022/11/17 06:26:49;;;;;;;19.77;12.63;;;4.60;99.90;;;;;;4990577;28;20258;-90
2022/11/17 06:29:15;;;;;;;18.30;12.47;;;4.60;99.90;;;;;;4989535;28;20180;-91
2022/11/17 06:31:42;;;;;;;17.73;11.70;;;4.60;99.90;;;;;;4988999;28;20558;-91
2022/11/17 06:34:09;;;;;;;17.63;11.87;;;4.60;99.90;;;;;;4988635;28;20210;-88
2022/11/17 06:36:34;;;;;;;18.47;11.43;;;4.60;99.90;;;;;;4995275;28;20168;-90
2022/11/17 06:39:00;;;;;;;18.73;11.87;;;4.60;99.90;;;;;;4995687;28;20176;-89
2022/11/17 06:41:27;;;;;;;17.90;12.07;;;4.60;99.90;;;;;;4995211;28;20172;-90
2022/11/17 06:43:53;;;;;;;17.57;12.00;;;4.60;99.90;;;;;;4994767;28;20182;-91
2022/11/17 06:46:19;;;;;;;20.00;11.93;;;4.60;99.90;;;;;;5006242;28;20266;-90
2022/11/17 06:48:45;;;;;;;22.10;12.97;;;4.60;99.90;;;;;;5007740;28;20667;-90
2022/11/17 06:51:24;;;;;;;17.37;11.83;;;4.60;99.90;;;;;;4995376;28;20538;-90
2022/11/17 06:53:50;;;;;;;18.97;12.33;;;4.60;99.90;;;;;;4995071;28;20175;-89
2022/11/17 06:56:17;;;;;;;20.40;12.37;;;4.60;99.90;;;;;;4994590;28;20187;-90
2022/11/17 06:58:44;;;;;;;21.17;12.23;;;4.50;99.90;;;;;;4994871;28;20200;-90
2022/11/17 07:01:12;;;;;;;19.30;12.00;;;4.50;99.90;;;;;;4994445;28;20594;-90
2022/11/17 07:03:41;;;;;;;18.33;12.67;;;4.50;99.90;;;;;;5009482;28;20219;-90
2022/11/17 07:06:09;;;;;;;18.67;12.67;;;4.50;99.90;;;;;;5013202;28;20175;-90
2022/11/17 07:08:35;;;;;;;17.93;12.17;;;4.40;99.90;;;;;;5014188;28;20207;-91
2022/11/17 07:11:10;;;;;;;18.13;12.37;;;4.40;99.90;;;;;;5013947;28;20175;-90
2022/11/17 07:13:37;;;;;;;19.47;12.50;;;4.40;99.90;;;;;;5013763;28;20189;-89
2022/11/17 07:16:05;;;;;;;21.43;11.73;;;4.40;99.90;;;;;;5001984;28;20599;-89
2022/11/17 07:18:32;;;;;;;18.33;12.10;;;4.50;99.90;;;;;;4994740;28;20195;-91
2022/11/17 07:21:06;;;;;;;18.97;12.33;;;4.50;99.90;;;;;;4988163;28;20258;-90
2022/11/17 07:23:33;;;;;;;19.17;12.30;;;4.40;99.90;;;;;;4982258;28;20176;-91
2022/11/17 07:26:00;;;;;;;16.50;11.20;;;4.40;99.90;;;;;;4993870;28;20171;-89
2022/11/17 07:28:26;;;;;;;19.67;11.80;;;4.40;99.90;;;;;;4993944;28;20196;-91
2022/11/17 07:30:52;;;;;;;22.00;12.53;;;4.40;99.90;;;;;;5002760;28;20740;-91
2022/11/17 07:33:18;;;;;;;18.73;12.57;;;4.40;99.90;;;;;;5014842;28;20225;-89
2022/11/17 07:35:44;;;;;;;20.30;12.20;;;4.40;99.90;;;;;;5014114;28;20172;-90
2022/11/17 07:38:10;;;;;;;18.67;11.93;;;4.40;99.90;;;;;;4994015;28;20204;-90
2022/11/17 07:40:36;;;;;;;16.70;11.27;;;4.40;99.90;;;;;;4994030;28;20236;-91
2022/11/17 07:43:02;;;;;;;22.27;11.90;;;4.40;99.90;;;;;;4999632;28;20194;-90
2022/11/17 07:45:28;;;;;;;30.40;13.40;;;4.50;99.90;;;;;;5013510;28;20175;-90
2022/11/17 07:47:57;;;;;;;18.30;11.80;;;4.40;99.90;;;;;;5007504;28;20200;-90
2022/11/17 07:50:25;;;;;;;18.87;11.73;;;4.40;99.90;;;;;;4993952;28;20643;-90
2022/11/17 07:52:52;;;;;;;18.93;12.43;;;4.40;99.90;;;;;;4994191;28;20206;-91
2022/11/17 07:55:18;;;;;;;18.20;11.60;;;4.40;99.90;;;;;;4994176;28;20635;-90
2022/11/17 07:57:44;;;;;;;18.67;12.07;;;4.40;99.90;;;;;;4994586;28;20200;-91
2022/11/17 08:00:13;;;;;;;20.67;12.67;;;4.40;99.90;;;;;;4994066;28;20230;-90
2022/11/17 08:02:39;;;;;;;20.13;12.67;;;4.40;99.90;;;;;;5000257;28;20179;-90
2022/11/17 08:05:06;;;;;;;17.53;11.17;;;4.40;99.90;;;;;;5013378;28;20171;-90
2022/11/17 08:07:32;;;;;;;19.43;12.20;;;4.40;99.90;;;;;;5013309;28;20205;-91
2022/11/17 08:09:58;;;;;;;17.77;11.50;;;4.50;99.90;;;;;;5006785;28;20609;-90
2022/11/17 08:12:24;;;;;;;17.47;11.80;;;4.50;99.90;;;;;;4989516;28;20261;-89
2022/11/17 08:14:50;;;;;;;15.67;10.77;;;4.50;99.90;;;;;;4998814;28;20568;-89
2022/11/17 08:17:16;;;;;;;17.20;11.33;;;4.50;99.90;;;;;;4992921;28;20596;-90
2022/11/17 08:19:42;;;;;;;23.97;11.77;;;4.40;99.90;;;;;;4993181;28;20168;-90
2022/11/17 08:22:08;;;;;;;19.00;11.67;;;4.40;99.90;;;;;;4993224;28;20179;-90
2022/11/17 08:24:34;;;;;;;17.53;12.23;;;4.40;99.90;;;;;;4993416;28;20172;-89
2022/11/17 08:27:00;;;;;;;21.60;11.63;;;4.40;99.90;;;;;;5005700;28;20213;-90
2022/11/17 08:29:25;;;;;;;17.43;10.93;;;4.40;99.90;;;;;;5013420;28;20174;-89
2022/11/17 08:31:51;;;;;;;20.57;11.60;;;4.40;99.90;;;;;;5010270;28;20284;-89
2022/11/17 08:34:17;;;;;;;18.27;11.43;;;4.40;99.90;;;;;;4994794;28;20156;-89
2022/11/17 08:36:43;;;;;;;20.20;11.50;;;4.40;99.90;;;;;;4993755;28;20175;-89
2022/11/17 08:39:08;;;;;;;15.97;11.23;;;4.40;99.90;;;;;;4993407;28;20176;-89
2022/11/17 08:41:34;;;;;;;16.47;11.03;;;4.40;99.90;;;;;;4993613;28;20186;-90
2022/11/17 08:44:00;;;;;;;25.30;11.47;;;4.40;99.90;;;;;;4988102;28;20177;-89
2022/11/17 08:46:26;;;;;;;16.47;10.77;;;4.40;99.90;;;;;;5012456;28;20234;-89
2022/11/17 08:48:53;;;;;;;14.83;10.77;;;4.40;99.90;;;;;;5013221;28;20163;-90
2022/11/17 08:51:19;;;;;;;16.97;11.60;;;4.40;99.90;;;;;;5013473;28;20205;-89
2022/11/17 08:53:44;;;;;;;16.97;10.83;;;4.40;99.90;;;;;;5008993;28;20187;-88
2022/11/17 08:56:12;;;;;;;18.17;11.17;;;4.40;99.90;;;;;;4993984;28;20238;-90
2022/11/17 08:58:43;;;;;;;15.73;10.67;;;4.40;99.90;;;;;;4993419;28;20195;-88
2022/11/17 09:01:17;;;;;;;15.00;9.93;;;4.40;99.90;;;;;;4993258;28;20191;-88
2022/11/17 09:03:44;;;;;;;16.53;10.20;;;4.40;99.90;;;;;;4988717;28;20181;-90
2022/11/17 09:06:11;;;;;;;16.43;9.50;;;4.40;99.90;;;;;;4974089;28;20177;-89
2022/11/17 09:08:37;;;;;;;15.90;10.03;;;4.40;99.90;;;;;;5007497;28;20195;-89
2022/11/17 09:11:05;;;;;;;16.00;9.73;;;4.40;99.90;;;;;;5012612;28;20171;-89
2022/11/17 09:13:31;;;;;;;14.83;9.57;;;4.50;99.90;;;;;;5012756;28;20201;-89
2022/11/17 09:16:05;;;;;;;14.33;9.63;;;4.50;99.90;;;;;;4989509;28;20184;-88
2022/11/17 09:18:32;;;;;;;13.20;9.20;;;4.50;99.90;;;;;;4973636;28;20230;-89
2022/11/17 09:21:03;;;;;;;11.93;8.20;;;4.50;99.90;;;;;;4973819;28;20251;-88
2022/11/17 09:23:30;;;;;;;12.33;8.60;;;4.50;99.90;;;;;;4974004;28;20536;-90
2022/11/17 09:25:57;;;;;;;13.03;7.90;;;4.50;99.90;;;;;;4973897;28;20184;-88
2022/11/17 09:28:24;;;;;;;12.07;7.70;;;4.50;99.90;;;;;;4973185;28;20232;-89
2022/11/17 09:30:51;;;;;;;11.27;7.10;;;4.50;99.90;;;;;;4972827;28;20224;-88
2022/11/17 09:33:18;;;;;;;12.10;7.80;;;4.50;99.90;;;;;;4973007;28;20171;-88
2022/11/17 09:35:44;;;;;;;12.73;7.90;;;4.60;99.90;;;;;;4973181;28;20223;-88
2022/11/17 09:38:10;;;;;;;12.50;7.83;;;4.60;99.90;;;;;;4973175;28;20573;-88
2022/11/17 09:40:39;;;;;;;11.77;7.53;;;4.60;99.90;;;;;;5004728;28;20187;-89
2022/11/17 09:43:20;;;;;;;11.07;7.67;;;4.60;99.90;;;;;;5012498;28;20202;-88
2022/11/17 09:45:49;;;;;;;10.17;6.97;;;4.60;99.90;;;;;;5012225;28;20178;-87
2022/11/17 09:48:38;;;;;;;11.70;7.53;;;4.60;99.90;;;;;;5011452;28;20211;-87
2022/11/17 09:51:10;;;;;;;12.30;7.37;;;4.60;99.90;;;;;;5012422;28;20268;-88
2022/11/17 09:53:41;;;;;;;10.13;6.20;;;4.60;99.90;;;;;;4998676;28;20215;-87
2022/11/17 09:56:10;;;;;;;10.47;7.57;;;4.60;99.90;;;;;;4992598;28;20515;-87
2022/11/17 09:58:55;;;;;;;14.13;7.73;;;4.60;99.90;;;;;;5011682;28;20280;-88
2022/11/17 10:01:22;;;;;;;10.13;7.07;;;4.60;99.90;;;;;;5012152;28;20206;-88
2022/11/17 10:03:52;;;;;;;10.87;7.57;;;4.60;99.90;;;;;;5011470;28;20191;-87
2022/11/17 10:06:36;;;;;;;12.73;8.27;;;4.60;99.90;;;;;;5011920;28;20190;-87
2022/11/17 10:09:28;;;;;;;13.07;8.37;;;4.60;99.90;;;;;;5011514;28;20242;-87
2022/11/17 10:12:07;;;;;;;16.10;8.40;;;4.60;99.90;;;;;;5012815;28;20200;-87
2022/11/17 10:14:38;;;;;;;10.57;7.43;;;4.70;99.90;;;;;;5013193;28;20156;-86
2022/11/17 10:17:04;;;;;;;12.83;8.60;;;4.70;99.90;;;;;;4992107;28;20211;-88
2022/11/17 10:19:32;;;;;;;11.40;7.50;;;4.70;99.90;;;;;;4995662;28;20180;-87
2022/11/17 10:22:01;;;;;;;11.30;8.23;;;4.70;99.90;;;;;;5010936;28;20182;-88
2022/11/17 10:24:49;;;;;;;11.50;7.97;;;4.70;99.90;;;;;;5011234;28;20222;-88
2022/11/17 10:27:18;;;;;;;13.90;7.87;;;4.80;99.90;;;;;;5007570;28;20222;-87
2022/11/17 10:30:23;;;;;;;11.27;6.87;;;4.80;99.90;;;;;;5011411;28;20282;-88
2022/11/17 10:32:51;;;;;;;10.80;7.40;;;4.80;99.90;;;;;;5011935;28;20269;-87
2022/11/17 10:35:19;;;;;;;11.50;7.47;;;4.80;99.90;;;;;;5011967;28;20179;-88
2022/11/17 10:38:14;;;;;;;12.00;7.33;;;4.80;99.90;;;;;;4995860;28;20647;-88
2022/11/17 10:40:41;;;;;;;8.77;6.57;;;4.80;99.90;;;;;;4993476;28;20278;-88
2022/11/17 10:43:14;;;;;;;10.57;6.83;;;4.80;99.90;;;;;;4995650;28;20259;-86
2022/11/17 10:45:55;;;;;;;11.00;6.70;;;4.80;99.90;;;;;;4995942;28;20172;-88
2022/11/17 10:48:30;;;;;;;9.53;6.70;;;4.80;99.90;;;;;;4995189;28;20199;-87
2022/11/17 10:51:03;;;;;;;9.33;6.17;;;4.80;99.90;;;;;;4995312;28;20171;-88
2022/11/17 10:53:35;;;;;;;9.03;6.70;;;4.90;99.90;;;;;;5003856;28;20191;-89
2022/11/17 10:56:20;;;;;;;10.57;6.53;;;4.90;99.90;;;;;;5015294;28;20175;-88
2022/11/17 10:59:00;;;;;;;11.53;6.10;;;4.90;99.90;;;;;;5018962;28;20199;-87
2022/11/17 11:01:39;;;;;;;10.30;6.77;;;4.90;99.90;;;;;;5021652;28;20637;-88
2022/11/17 11:04:24;;;;;;;9.83;6.23;;;4.90;99.90;;;;;;5014872;28;20171;-88
2022/11/17 11:07:04;;;;;;;8.57;5.77;;;4.90;99.90;;;;;;5014441;28;20349;-88
2022/11/17 11:09:31;;;;;;;8.90;5.27;;;4.90;99.90;;;;;;5011810;28;20255;-87
2022/11/17 11:12:00;;;;;;;8.83;5.97;;;4.90;99.90;;;;;;4984595;28;20242;-88
2022/11/17 11:14:42;;;;;;;7.80;5.70;;;4.90;99.90;;;;;;4994838;28;20180;-90
2022/11/17 11:17:13;;;;;;;8.80;6.07;;;5.00;99.90;;;;;;4996006;28;20219;-88
2022/11/17 11:19:41;;;;;;;11.43;6.60;;;5.00;99.90;;;;;;4995563;28;20211;-88
2022/11/17 11:22:41;;;;;;;9.50;6.03;;;5.00;99.90;;;;;;4976486;28;20177;-87
2022/11/17 11:25:26;;;;;;;9.73;6.23;;;5.00;99.90;;;;;;4980282;28;20188;-87
2022/11/17 11:28:29;;;;;;;7.47;5.23;;;4.90;99.90;;;;;;4994484;28;20215;-88
2022/11/17 11:31:32;;;;;;;8.00;5.63;;;5.00;99.90;;;;;;4994658;28;20226;-88
2022/11/17 11:34:22;;;;;;;8.47;5.57;;;5.00;99.90;;;;;;4994599;28;20190;-88
2022/11/17 11:37:07;;;;;;;8.40;5.93;;;5.00;99.90;;;;;;4994579;28;20671;-88
2022/11/17 11:40:04;;;;;;;8.80;5.60;;;5.00;99.90;;;;;;4995159;28;20250;-87
2022/11/17 11:42:42;;;;;;;7.80;5.67;;;5.00;99.90;;;;;;4996816;28;20234;-87
2022/11/17 11:45:14;;;;;;;9.37;5.67;;;5.00;99.90;;;;;;5014077;28;20183;-88
2022/11/17 11:48:03;;;;;;;8.13;5.67;;;5.00;99.90;;;;;;5013976;28;20205;-88
2022/11/17 11:50:41;;;;;;;8.93;6.03;;;5.00;99.90;;;;;;5014310;28;20175;-88
2022/11/17 11:53:32;;;;;;;9.33;5.13;;;5.00;99.90;;;;;;5013323;28;20297;-88
2022/11/17 11:56:19;;;;;;;7.97;5.17;;;5.00;99.90;;;;;;5015289;28;20177;-87
2022/11/17 11:58:51;;;;;;;7.30;5.27;;;5.00;99.90;;;;;;5014131;28;20199;-88
2022/11/17 12:01:20;;;;;;;7.57;5.17;;;5.10;99.90;;;;;;5014183;28;20190;-88
2022/11/17 12:03:53;;;;;;;9.03;5.03;;;5.10;99.90;;;;;;5013667;28;20183;-89
2022/11/17 12:06:40;;;;;;;7.37;5.27;;;5.10;99.90;;;;;;5013880;28;20179;-88
2022/11/17 12:09:23;;;;;;;8.77;5.50;;;5.10;99.90;;;;;;5014918;28;20174;-88
2022/11/17 12:12:01;;;;;;;5.77;4.70;;;5.10;99.90;;;;;;5013418;28;20230;-88
2022/11/17 12:14:36;;;;;;;6.77;5.13;;;5.10;99.90;;;;;;5013711;28;20178;-87
2022/11/17 12:17:22;;;;;;;5.53;4.60;;;5.10;99.90;;;;;;4993725;28;20678;-88
2022/11/17 12:19:54;;;;;;;7.73;5.10;;;5.10;99.90;;;;;;4994719;28;20520;-87
2022/11/17 12:22:28;;;;;;;6.63;5.23;;;5.10;99.90;;;;;;4995540;28;20192;-88
2022/11/17 12:25:04;;;;;;;6.20;4.67;;;5.20;99.90;;;;;;4994958;28;20180;-87
2022/11/17 12:27:33;;;;;;;5.97;4.90;;;5.20;99.90;;;;;;4993684;28;20667;-88
2022/11/17 12:29:59;;;;;;;6.60;4.80;;;5.20;99.90;;;;;;4993629;28;20192;-88
2022/11/17 12:32:43;;;;;;;6.93;5.30;;;5.20;99.90;;;;;;4955869;28;20216;-87
2022/11/17 12:35:37;;;;;;;5.80;4.93;;;5.20;99.90;;;;;;4955278;28;20177;-87
2022/11/17 12:38:15;;;;;;;7.00;5.00;;;5.20;99.90;;;;;;4953639;28;20209;-89
2022/11/17 12:40:54;;;;;;;6.57;4.50;;;5.20;99.90;;;;;;4965323;28;20238;-89
2022/11/17 12:43:25;;;;;;;6.43;4.90;;;5.20;99.90;;;;;;4975848;28;20194;-88
2022/11/17 12:46:09;;;;;;;5.50;4.50;;;5.20;99.90;;;;;;4974274;28;20181;-88
2022/11/17 12:49:05;;;;;;;6.00;4.53;;;5.20;99.90;;;;;;4965318;28;20252;-87
2022/11/17 12:51:59;;;;;;;6.60;4.70;;;5.30;99.90;;;;;;4954353;28;20300;-87
2022/11/17 12:54:36;;;;;;;5.53;4.23;;;5.20;99.90;;;;;;4955252;28;20533;-87
2022/11/17 12:57:16;;;;;;;5.27;3.87;;;5.30;99.90;;;;;;4960137;28;20238;-87
2022/11/17 12:59:51;;;;;;;5.43;4.47;;;5.30;99.90;;;;;;4966833;28;20192;-88
2022/11/17 13:02:27;;;;;;;4.93;3.97;;;5.30;99.90;;;;;;4955148;28;20173;-88
2022/11/17 13:05:10;;;;;;;4.83;3.70;;;5.30;99.90;;;;;;4953824;28;20241;-88
2022/11/17 13:07:36;;;;;;;5.73;4.20;;;5.30;99.90;;;;;;4954414;28;20288;-87
2022/11/17 13:10:02;;;;;;;5.37;4.00;;;5.30;99.90;;;;;;4954729;28;20253;-88
2022/11/17 13:12:30;;;;;;;6.67;4.53;;;5.30;99.90;;;;;;4960379;28;20232;-87
2022/11/17 13:14:58;;;;;;;5.40;3.77;;;5.30;99.90;;;;;;4974322;28;20184;-88
2022/11/17 13:17:40;;;;;;;5.57;3.90;;;5.30;99.90;;;;;;4975099;28;20197;-89
2022/11/17 13:20:26;;;;;;;4.93;3.67;;;5.30;99.90;;;;;;4965896;28;20208;-88
2022/11/17 13:23:03;;;;;;;6.33;3.80;;;5.30;99.90;;;;;;4954851;28;20725;-88
2022/11/17 13:25:29;;;;;;;4.17;3.63;;;5.30;99.90;;;;;;4954909;28;20173;-87
2022/11/17 13:27:55;;;;;;;4.60;3.37;;;5.30;99.90;;;;;;4960332;28;20215;-87
2022/11/17 13:30:29;;;;;;;4.87;3.60;;;5.30;99.90;;;;;;4980177;28;20283;-88
2022/11/17 13:32:56;;;;;;;5.27;3.70;;;5.20;99.90;;;;;;5013087;28;20210;-88
2022/11/17 13:35:31;;;;;;;4.03;3.50;;;5.30;99.90;;;;;;5013221;28;20171;-88
2022/11/17 13:38:04;;;;;;;4.00;3.50;;;5.30;99.90;;;;;;5012846;28;20662;-88
2022/11/17 13:40:32;;;;;;;5.13;3.80;;;5.30;99.90;;;;;;5013129;28;20631;-87
2022/11/17 13:42:59;;;;;;;5.17;3.80;;;5.20;99.90;;;;;;5012724;28;20186;-87
2022/11/17 13:45:25;;;;;;;5.03;3.83;;;5.30;99.90;;;;;;5012775;28;20274;-87
2022/11/17 13:47:53;;;;;;;4.17;3.13;;;5.30;99.90;;;;;;5013393;28;20290;-88